KCFV/CFV METAR and TAF weather

Enter ICAO airport designator
Station Type Date Time Source
KCFV METAR 2020/01/24 20:52 UTC NOAA

KCFV 242052Z AUTO 31010KT 10SM OVC021 03/M01 A3007 RMK AO2 SLP186 T00281011 55007


Station Type Date Time Source
KCFV Decoded METAR 2020/01/24 20:52 UTC NOAA

COFFEYVILLE MUNICIPAL AIRPORT , KS, United States (KCFV) 37-05N 95-34W 225M
Jan 24, 2020 - 03:52 PM EST / 2020.01.24 2052 UTC
Wind: from the NW (310 degrees) at 12 MPH (10 KT):0
Visibility: 10 mile(s):0
Sky conditions: overcast
Temperature: 37.0 F (2.8 C)
Dew Point: 30.0 F (-1.1 C)
Relative Humidity: 75%
Pressure (altimeter): 30.07 in. Hg (1018 hPa)
Pressure tendency: 0.02 inches (0.7 hPa) lower than three hours ago
ob: KCFV 242052Z AUTO 31010KT 10SM OVC021 03/M01 A3007 RMK AO2 SLP186 T00281011 55007
cycle: 21

Station Type Date Time Source
KCFV TAF UTC NOAA

Error!

Example: see airport list